Time;durP1;ratioP1;P1;durP2;ratioP2;P2;SDS_P1;SDS_P2;PMS_P1;PMS_P2;Temp;Humidity;BMP_temperature;BMP_pressure;BME280_temperature;BME280_humidity;BME280_pressure;Samples;Min_cycle;Max_cycle;Signal;HPM_P1;HPM_P2
2022/04/03 00:00:41;;;;;;;1.67;0.40;;;25.50;90.70;;;;;;4970481;28;20106;-72
2022/04/03 00:03:09;;;;;;;0.52;0.30;;;25.00;91.50;;;;;;4990220;28;20457;-72
2022/04/03 00:05:41;;;;;;;0.60;0.30;;;24.80;91.70;;;;;;4988456;28;20405;-72
2022/04/03 00:08:10;;;;;;;0.32;0.25;;;25.00;92.10;;;;;;4989330;28;20077;-72
2022/04/03 00:10:39;;;;;;;1.40;0.22;;;25.20;91.40;;;;;;4983025;28;20148;-72
2022/04/03 00:13:08;;;;;;;0.88;0.43;;;25.40;90.90;;;;;;4971942;28;20078;-71
2022/04/03 00:15:41;;;;;;;1.85;0.55;;;25.30;90.70;;;;;;4978136;28;20026;-72
2022/04/03 00:18:10;;;;;;;1.38;0.20;;;25.10;90.60;;;;;;4984605;28;20209;-73
2022/04/03 00:20:39;;;;;;;2.42;0.50;;;25.00;89.90;;;;;;4974682;28;20092;-73
2022/04/03 00:23:06;;;;;;;0.82;0.38;;;25.40;88.50;;;;;;4970678;28;20544;-73
2022/04/03 00:25:34;;;;;;;0.93;0.22;;;26.30;88.70;;;;;;4982650;28;20357;-72
2022/04/03 00:28:02;;;;;;;0.98;0.28;;;27.20;86.60;;;;;;4992074;28;20064;-73
2022/04/03 00:30:29;;;;;;;1.55;0.35;;;27.60;83.70;;;;;;4988006;28;20595;-71
2022/04/03 00:32:57;;;;;;;1.83;0.55;;;27.10;82.20;;;;;;4981684;28;20493;-74
2022/04/03 00:35:25;;;;;;;1.98;0.32;;;26.00;84.10;;;;;;4985842;28;20042;-71
2022/04/03 00:37:53;;;;;;;2.58;0.20;;;25.20;84.10;;;;;;4978877;28;20031;-73
2022/04/03 00:40:23;;;;;;;2.17;0.32;;;24.70;84.20;;;;;;4982117;28;20042;-73
2022/04/03 00:42:51;;;;;;;1.58;0.22;;;25.40;83.90;;;;;;4986344;28;20022;-72
2022/04/03 00:45:19;;;;;;;1.50;1.15;;;26.30;82.40;;;;;;4989422;28;20070;-72
2022/04/03 00:47:54;;;;;;;0.80;0.40;;;27.20;82.90;;;;;;4982942;28;20125;-72
2022/04/03 00:50:23;;;;;;;1.60;0.20;;;28.20;82.30;;;;;;4991686;28;20432;-72
2022/04/03 00:52:50;;;;;;;4.30;0.50;;;28.30;78.60;;;;;;5011529;28;20027;-75
2022/04/03 00:55:20;;;;;;;1.27;0.30;;;28.50;81.30;;;;;;5006659;28;20087;-73
2022/04/03 00:57:48;;;;;;;1.13;0.30;;;29.00;78.60;;;;;;4988435;28;20442;-73
2022/04/03 01:00:17;;;;;;;0.68;0.13;;;28.90;77.40;;;;;;4976071;28;20047;-72
2022/04/03 01:02:44;;;;;;;0.70;0.30;;;28.50;77.30;;;;;;4976010;28;20027;-74
2022/04/03 01:05:12;;;;;;;1.80;0.52;;;27.30;77.50;;;;;;4973212;28;20027;-73
2022/04/03 01:07:40;;;;;;;1.77;0.75;;;26.10;79.00;;;;;;4983422;28;20397;-75
2022/04/03 01:10:08;;;;;;;1.98;0.38;;;25.40;80.20;;;;;;4992387;28;20054;-75
2022/04/03 01:12:47;;;;;;;2.15;0.38;;;25.40;80.70;;;;;;4992689;28;20031;-75
2022/04/03 01:15:15;;;;;;;1.88;0.30;;;25.10;81.20;;;;;;4981175;28;20038;-73
2022/04/03 01:17:43;;;;;;;1.77;0.63;;;25.00;82.80;;;;;;4993603;28;20380;-73
2022/04/03 01:20:12;;;;;;;2.45;0.43;;;25.30;81.70;;;;;;4988762;28;20035;-74
2022/04/03 01:22:39;;;;;;;0.70;0.20;;;25.40;81.80;;;;;;4992769;28;20054;-75
2022/04/03 01:25:09;;;;;;;1.23;0.40;;;25.90;82.00;;;;;;4975240;28;20069;-76
2022/04/03 01:27:37;;;;;;;4.95;0.50;;;25.90;82.70;;;;;;4992763;28;20039;-73
2022/04/03 01:30:07;;;;;;;3.10;0.35;;;25.40;81.90;;;;;;4989399;28;20077;-74
2022/04/03 01:32:35;;;;;;;1.20;0.50;;;25.70;82.70;;;;;;4976200;28;20705;-73
2022/04/03 01:35:03;;;;;;;0.28;0.20;;;25.90;82.10;;;;;;4988883;28;20400;-74
2022/04/03 01:37:30;;;;;;;2.75;0.35;;;26.50;81.40;;;;;;4991366;28;20038;-73
2022/04/03 01:39:58;;;;;;;3.55;0.50;;;26.80;79.70;;;;;;4989196;28;20038;-73
2022/04/03 01:42:25;;;;;;;2.88;0.40;;;26.80;80.70;;;;;;4986283;28;20033;-76
2022/04/03 01:44:53;;;;;;;1.63;0.40;;;27.20;81.40;;;;;;4975314;28;20065;-75
2022/04/03 01:47:20;;;;;;;2.25;0.68;;;27.40;80.50;;;;;;4981414;28;20122;-75
2022/04/03 01:49:47;;;;;;;4.38;1.15;;;27.40;79.30;;;;;;4973891;28;20181;-74
2022/04/03 01:52:15;;;;;;;2.70;0.43;;;27.00;79.00;;;;;;4984174;28;20022;-74
2022/04/03 01:54:42;;;;;;;0.90;0.30;;;27.20;80.60;;;;;;4977897;28;20084;-75
2022/04/03 01:57:09;;;;;;;4.30;0.60;;;27.20;80.00;;;;;;4989070;28;20061;-75
2022/04/03 01:59:37;;;;;;;1.98;0.45;;;27.20;78.10;;;;;;4972218;28;20193;-74
2022/04/03 02:02:04;;;;;;;2.42;0.68;;;27.10;78.90;;;;;;4990155;28;20106;-74
2022/04/03 02:04:32;;;;;;;1.98;0.40;;;27.10;79.70;;;;;;4988653;28;20030;-73
2022/04/03 02:07:02;;;;;;;1.83;0.50;;;27.40;78.50;;;;;;4982228;28;20033;-74
2022/04/03 02:09:32;;;;;;;0.73;0.20;;;27.60;78.70;;;;;;4968523;28;20034;-75
2022/04/03 02:11:59;;;;;;;1.48;0.30;;;27.40;78.20;;;;;;4973210;28;20026;-74
2022/04/03 02:14:27;;;;;;;3.38;0.63;;;27.40;79.70;;;;;;4975412;28;20034;-74
2022/04/03 02:16:56;;;;;;;2.58;0.50;;;27.70;78.00;;;;;;4976077;28;20097;-73
2022/04/03 02:19:25;;;;;;;1.45;0.30;;;28.20;77.60;;;;;;4977046;28;20046;-72
2022/04/03 02:21:53;;;;;;;2.67;0.63;;;28.40;78.60;;;;;;4980278;28;20101;-73
2022/04/03 02:24:20;;;;;;;1.50;0.35;;;28.70;78.20;;;;;;4971067;28;20061;-74
2022/04/03 02:26:47;;;;;;;0.50;0.30;;;28.70;78.10;;;;;;4972675;28;20030;-72
2022/04/03 02:29:16;;;;;;;1.92;0.35;;;28.20;77.10;;;;;;4970749;28;20035;-72
2022/04/03 02:31:45;;;;;;;2.88;0.40;;;28.00;78.50;;;;;;4983505;28;20092;-73
2022/04/03 02:34:13;;;;;;;1.10;0.30;;;28.10;77.20;;;;;;4989281;28;20030;-75
2022/04/03 02:36:41;;;;;;;0.43;0.32;;;28.30;78.90;;;;;;4983337;28;20027;-75
2022/04/03 02:39:08;;;;;;;0.60;0.30;;;28.30;79.20;;;;;;4972616;28;20482;-74
2022/04/03 02:41:36;;;;;;;2.33;0.40;;;28.40;79.00;;;;;;4976905;28;20140;-75
2022/04/03 02:44:06;;;;;;;1.13;0.57;;;28.80;79.00;;;;;;4972628;28;20493;-71
2022/04/03 02:46:34;;;;;;;1.77;0.63;;;29.00;76.80;;;;;;4977530;28;20050;-72
2022/04/03 02:49:02;;;;;;;1.90;0.82;;;29.20;76.80;;;;;;4973542;28;20038;-72
2022/04/03 02:51:29;;;;;;;0.70;0.30;;;29.10;77.60;;;;;;4976514;28;20026;-73
2022/04/03 02:53:56;;;;;;;1.90;0.40;;;29.00;77.70;;;;;;4989977;28;20485;-72
2022/04/03 02:56:24;;;;;;;1.70;0.50;;;28.90;77.20;;;;;;4976830;28;20031;-74
2022/04/03 02:58:53;;;;;;;1.63;0.95;;;29.30;77.80;;;;;;4978619;28;20042;-73
2022/04/03 03:01:20;;;;;;;1.02;0.55;;;29.60;76.30;;;;;;4976870;28;20469;-75
2022/04/03 03:03:48;;;;;;;1.50;0.30;;;29.40;75.20;;;;;;4988763;28;20042;-75
2022/04/03 03:06:15;;;;;;;1.30;0.30;;;29.40;76.30;;;;;;4978655;28;20033;-75
2022/04/03 03:08:43;;;;;;;2.25;0.45;;;29.20;76.40;;;;;;4974808;28;20501;-76
2022/04/03 03:11:10;;;;;;;2.38;1.15;;;29.00;76.10;;;;;;4973974;28;20054;-74
2022/04/03 03:13:38;;;;;;;1.13;0.40;;;29.00;77.10;;;;;;4974781;28;20027;-76
2022/04/03 03:16:06;;;;;;;1.55;0.30;;;29.50;77.80;;;;;;4982928;28;20065;-74
2022/04/03 03:18:34;;;;;;;0.70;0.32;;;29.50;76.20;;;;;;4988828;28;20088;-73
2022/04/03 03:21:01;;;;;;;1.45;0.38;;;29.50;75.80;;;;;;4969603;28;20086;-74
2022/04/03 03:23:29;;;;;;;2.13;1.02;;;29.70;77.00;;;;;;4982705;28;20116;-73
2022/04/03 03:25:57;;;;;;;2.88;0.35;;;30.00;76.10;;;;;;4986426;28;20126;-74
2022/04/03 03:28:24;;;;;;;1.15;0.45;;;30.10;74.00;;;;;;4982546;28;20027;-74
2022/04/03 03:30:52;;;;;;;1.13;0.45;;;29.90;74.20;;;;;;4979748;28;21845;-74
2022/04/03 03:33:19;;;;;;;2.63;0.32;;;29.50;75.40;;;;;;4972799;28;20516;-74
2022/04/03 03:35:47;;;;;;;1.85;0.40;;;29.70;76.00;;;;;;4979878;28;20052;-75
2022/04/03 03:38:14;;;;;;;1.88;0.40;;;29.80;75.00;;;;;;4991607;28;20037;-75
2022/04/03 03:40:42;;;;;;;2.03;0.70;;;30.20;74.70;;;;;;4978185;28;20073;-75
2022/04/03 03:43:09;;;;;;;2.50;0.30;;;29.80;74.20;;;;;;4980103;28;20035;-75
2022/04/03 03:45:37;;;;;;;1.23;0.28;;;29.70;75.30;;;;;;4980121;28;20146;-75
2022/04/03 03:48:04;;;;;;;1.58;0.30;;;29.70;75.00;;;;;;4976872;28;20022;-76
2022/04/03 03:50:32;;;;;;;0.93;0.30;;;29.90;74.70;;;;;;4983314;28;20023;-74
2022/04/03 03:52:59;;;;;;;0.43;0.20;;;29.10;72.90;;;;;;4974562;28;20031;-74
2022/04/03 03:55:26;;;;;;;2.55;0.30;;;29.00;73.00;;;;;;4968818;28;20551;-74
2022/04/03 03:57:54;;;;;;;0.68;0.20;;;29.40;73.30;;;;;;4978725;28;20030;-74
2022/04/03 04:00:21;;;;;;;1.83;0.20;;;29.70;72.80;;;;;;4988903;28;20050;-74
2022/04/03 04:02:49;;;;;;;1.58;0.60;;;29.80;72.80;;;;;;4995682;28;20377;-74
2022/04/03 04:05:17;;;;;;;0.90;0.30;;;29.80;71.60;;;;;;4991079;28;20482;-74
2022/04/03 04:07:46;;;;;;;1.80;0.65;;;29.90;72.00;;;;;;4994599;28;20027;-75
2022/04/03 04:10:16;;;;;;;0.75;0.20;;;29.90;70.20;;;;;;4974552;28;20069;-74
2022/04/03 04:12:45;;;;;;;1.42;0.35;;;29.60;69.90;;;;;;4987381;28;20050;-74
2022/04/03 04:15:15;;;;;;;0.93;0.30;;;29.40;69.40;;;;;;4977034;28;20026;-74
2022/04/03 04:17:48;;;;;;;0.60;0.25;;;29.30;72.70;;;;;;4978481;28;20026;-74
2022/04/03 04:20:18;;;;;;;7.88;1.08;;;29.60;70.40;;;;;;4987450;28;20378;-74
2022/04/03 04:22:47;;;;;;;1.40;0.25;;;30.10;70.90;;;;;;4993496;28;20026;-74
2022/04/03 04:25:15;;;;;;;1.63;0.30;;;30.20;71.30;;;;;;4973761;28;20533;-73
2022/04/03 04:27:44;;;;;;;1.83;0.30;;;30.40;70.60;;;;;;4978085;28;20133;-74
2022/04/03 04:30:13;;;;;;;5.88;0.40;;;30.40;68.50;;;;;;4984454;28;20856;-74
2022/04/03 04:32:41;;;;;;;0.75;0.25;;;30.10;68.40;;;;;;4977453;28;20058;-75
2022/04/03 04:35:09;;;;;;;1.00;0.43;;;30.10;68.70;;;;;;4975930;28;20466;-74
2022/04/03 04:37:37;;;;;;;0.43;0.20;;;30.20;69.80;;;;;;4991793;28;20045;-74
2022/04/03 04:40:05;;;;;;;2.70;0.38;;;30.20;68.40;;;;;;4996769;28;20030;-74
2022/04/03 04:42:33;;;;;;;2.17;0.32;;;29.70;68.90;;;;;;5003138;28;20025;-74
2022/04/03 04:45:01;;;;;;;1.10;0.30;;;29.10;69.90;;;;;;4988190;28;20026;-75
2022/04/03 04:47:28;;;;;;;1.23;0.45;;;28.90;70.00;;;;;;4975430;28;20049;-74
2022/04/03 04:49:56;;;;;;;0.68;0.30;;;28.70;70.10;;;;;;4978727;28;20037;-73
2022/04/03 04:52:23;;;;;;;4.20;0.40;;;28.60;69.90;;;;;;4977344;28;20027;-75
2022/04/03 04:54:50;;;;;;;1.90;0.40;;;28.40;70.70;;;;;;4989161;28;20519;-74
2022/04/03 04:57:18;;;;;;;1.63;0.20;;;28.20;70.80;;;;;;4990639;28;20117;-73
2022/04/03 04:59:45;;;;;;;2.13;0.43;;;28.00;70.30;;;;;;4970989;28;20122;-73
2022/04/03 05:02:12;;;;;;;0.90;0.43;;;28.00;71.20;;;;;;4974636;28;20030;-74
2022/04/03 05:04:40;;;;;;;1.50;0.50;;;28.10;71.60;;;;;;4971074;28;20507;-74
2022/04/03 05:07:10;;;;;;;0.88;0.20;;;28.10;71.70;;;;;;4971365;28;20022;-74
2022/04/03 05:09:37;;;;;;;0.55;0.30;;;28.30;70.60;;;;;;4974612;28;20034;-74
2022/04/03 05:12:05;;;;;;;2.80;0.63;;;28.30;71.70;;;;;;4979782;28;20113;-73
2022/04/03 05:14:33;;;;;;;2.85;0.40;;;28.30;69.80;;;;;;4984422;28;20034;-73
2022/04/03 05:17:00;;;;;;;1.63;0.85;;;28.00;69.40;;;;;;4974370;28;20418;-73
2022/04/03 05:19:28;;;;;;;2.97;0.50;;;27.50;69.30;;;;;;4974657;28;20112;-73
2022/04/03 05:21:55;;;;;;;2.45;0.85;;;27.30;71.10;;;;;;4987937;28;20456;-73
2022/04/03 05:24:23;;;;;;;3.17;0.60;;;27.10;69.10;;;;;;4975609;28;20042;-73
2022/04/03 05:26:50;;;;;;;1.40;0.40;;;27.00;70.00;;;;;;4974231;28;20041;-74
2022/04/03 05:29:18;;;;;;;1.50;0.50;;;27.00;69.90;;;;;;4981989;28;20031;-74
2022/04/03 05:31:45;;;;;;;1.67;0.60;;;26.90;70.60;;;;;;4973847;28;20157;-74
2022/04/03 05:34:13;;;;;;;3.92;0.57;;;26.90;70.10;;;;;;4986286;28;20034;-74
2022/04/03 05:36:40;;;;;;;4.22;0.47;;;27.00;71.20;;;;;;4985805;28;20085;-74
2022/04/03 05:39:07;;;;;;;1.50;0.43;;;27.00;70.80;;;;;;4979003;28;20121;-73
2022/04/03 05:41:35;;;;;;;2.40;0.43;;;27.10;69.80;;;;;;4983618;28;20042;-74
2022/04/03 05:44:03;;;;;;;2.55;0.70;;;27.10;70.20;;;;;;4973871;28;20029;-74
2022/04/03 05:46:32;;;;;;;2.80;0.98;;;27.00;70.50;;;;;;4972468;28;20141;-73
2022/04/03 05:48:59;;;;;;;3.05;0.60;;;26.80;70.50;;;;;;4973244;28;20026;-74
2022/04/03 05:51:27;;;;;;;1.40;0.55;;;26.80;71.40;;;;;;4972905;28;20507;-74
2022/04/03 05:53:54;;;;;;;1.50;0.60;;;26.70;71.90;;;;;;4973188;28;20037;-74
2022/04/03 05:56:27;;;;;;;1.42;0.70;;;26.50;71.60;;;;;;4974235;28;20031;-74
2022/04/03 05:58:55;;;;;;;3.40;1.02;;;26.40;72.60;;;;;;4979111;28;20467;-73
2022/04/03 06:01:22;;;;;;;0.75;0.50;;;26.40;71.90;;;;;;4975661;28;20256;-73
2022/04/03 06:03:50;;;;;;;4.82;0.68;;;26.30;71.80;;;;;;4987054;28;20074;-73
2022/04/03 06:06:18;;;;;;;4.15;0.90;;;26.20;71.60;;;;;;4981456;28;20504;-74
2022/04/03 06:08:45;;;;;;;1.20;0.60;;;26.10;71.90;;;;;;4974560;28;20029;-73
2022/04/03 06:11:13;;;;;;;2.80;0.90;;;26.10;73.00;;;;;;4974350;28;20491;-73
2022/04/03 06:13:40;;;;;;;2.67;0.55;;;26.10;73.00;;;;;;4974092;28;20043;-73
2022/04/03 06:16:10;;;;;;;3.25;1.10;;;26.00;71.60;;;;;;4973064;28;20038;-72
2022/04/03 06:18:37;;;;;;;1.88;1.10;;;25.90;72.40;;;;;;4973520;28;20042;-73
2022/04/03 06:21:05;;;;;;;3.17;1.00;;;25.80;73.50;;;;;;4977802;28;20026;-74
2022/04/03 06:23:33;;;;;;;2.00;0.70;;;25.80;72.50;;;;;;4975111;28;20102;-72
2022/04/03 06:26:00;;;;;;;2.25;0.88;;;25.70;72.90;;;;;;4972655;28;20575;-73
2022/04/03 06:28:29;;;;;;;2.17;1.10;;;25.70;72.90;;;;;;4975257;28;20049;-71
2022/04/03 06:30:56;;;;;;;3.88;0.95;;;25.60;72.70;;;;;;4983995;28;20022;-72
2022/04/03 06:33:24;;;;;;;5.50;1.10;;;25.60;73.50;;;;;;4993053;28;20042;-72
2022/04/03 06:35:51;;;;;;;5.20;1.48;;;25.50;73.40;;;;;;4976080;28;20046;-71
2022/04/03 06:38:19;;;;;;;5.50;0.75;;;25.50;73.40;;;;;;4970965;28;20392;-72
2022/04/03 06:40:54;;;;;;;2.40;0.88;;;25.40;74.20;;;;;;4980992;28;20042;-72
2022/04/03 06:43:24;;;;;;;2.40;0.80;;;25.30;73.70;;;;;;4986008;28;20118;-71
2022/04/03 06:45:53;;;;;;;4.72;1.30;;;25.20;73.80;;;;;;4972519;28;20041;-71
2022/04/03 06:48:21;;;;;;;3.78;0.80;;;25.20;74.40;;;;;;4990469;28;20102;-71
2022/04/03 06:50:48;;;;;;;5.65;0.98;;;25.20;74.60;;;;;;4987143;28;20117;-72
2022/04/03 06:53:16;;;;;;;1.67;0.85;;;25.10;75.10;;;;;;4975909;28;20042;-72
2022/04/03 06:55:43;;;;;;;1.63;0.90;;;25.00;75.10;;;;;;4971895;28;20193;-70
2022/04/03 06:58:11;;;;;;;2.83;0.85;;;25.00;75.10;;;;;;4976711;28;20026;-71
2022/04/03 07:00:41;;;;;;;1.95;0.90;;;25.00;74.50;;;;;;4978623;28;20035;-74
2022/04/03 07:03:08;;;;;;;2.75;1.05;;;24.90;74.80;;;;;;4970307;28;20213;-72
2022/04/03 07:05:36;;;;;;;4.85;1.70;;;24.90;75.30;;;;;;4975400;28;20026;-72
2022/04/03 07:08:03;;;;;;;2.97;0.90;;;24.90;75.00;;;;;;4985722;28;20018;-72
2022/04/03 07:10:31;;;;;;;2.92;1.45;;;24.90;75.30;;;;;;4976348;28;20540;-73
2022/04/03 07:12:59;;;;;;;3.95;1.15;;;24.80;75.50;;;;;;4973453;28;20117;-74
2022/04/03 07:15:27;;;;;;;4.68;1.33;;;24.80;75.70;;;;;;4972089;28;20039;-73
2022/04/03 07:17:54;;;;;;;3.90;1.02;;;24.70;75.70;;;;;;4970933;28;20019;-74
2022/04/03 07:20:21;;;;;;;1.73;0.93;;;24.60;75.70;;;;;;4970425;28;20742;-73
2022/04/03 07:22:49;;;;;;;3.10;1.00;;;24.60;76.30;;;;;;4981014;28;20045;-73
2022/04/03 07:25:17;;;;;;;2.63;1.00;;;24.60;76.40;;;;;;4968756;28;20121;-73
2022/04/03 07:27:44;;;;;;;1.83;0.90;;;24.50;76.70;;;;;;4971179;28;20046;-73
2022/04/03 07:30:15;;;;;;;3.33;0.95;;;24.40;77.60;;;;;;4979752;28;20030;-73
2022/04/03 07:32:42;;;;;;;2.35;1.30;;;24.30;77.20;;;;;;4977632;28;20042;-73
2022/04/03 07:35:11;;;;;;;4.85;1.00;;;24.30;77.30;;;;;;4977128;28;20485;-73
2022/04/03 07:37:39;;;;;;;4.18;2.28;;;24.30;79.30;;;;;;4985208;28;20384;-73
2022/04/03 07:40:08;;;;;;;4.85;1.50;;;24.10;80.80;;;;;;4981477;28;20489;-72
2022/04/03 07:42:36;;;;;;;2.83;1.30;;;24.00;81.60;;;;;;4980490;28;20034;-73
2022/04/03 07:45:07;;;;;;;2.20;1.17;;;23.80;82.30;;;;;;4971823;28;20053;-71
2022/04/03 07:47:35;;;;;;;3.40;1.58;;;23.70;84.00;;;;;;4981325;28;20486;-71
2022/04/03 07:50:04;;;;;;;2.13;1.20;;;23.50;84.40;;;;;;4970022;28;20039;-74
2022/04/03 07:52:32;;;;;;;1.95;1.25;;;23.40;85.00;;;;;;4971082;28;20106;-74
2022/04/03 07:54:59;;;;;;;2.33;1.38;;;23.30;85.20;;;;;;4970103;28;20042;-72
2022/04/03 07:57:27;;;;;;;2.83;1.30;;;23.10;85.30;;;;;;4969103;28;20552;-73
2022/04/03 07:59:54;;;;;;;3.72;1.40;;;23.10;85.50;;;;;;4967976;28;20559;-73
2022/04/03 08:02:21;;;;;;;3.15;1.42;;;23.00;85.40;;;;;;4976111;28;20026;-72
2022/04/03 08:04:50;;;;;;;2.80;1.00;;;22.90;86.10;;;;;;4973879;28;20042;-74
2022/04/03 08:07:17;;;;;;;4.93;1.45;;;22.80;86.50;;;;;;4978108;28;20078;-72
2022/04/03 08:09:44;;;;;;;3.05;0.93;;;22.80;87.40;;;;;;4969328;28;20030;-71
2022/04/03 08:12:12;;;;;;;4.20;1.70;;;22.70;87.00;;;;;;4970538;28;20099;-74
2022/04/03 08:14:42;;;;;;;2.50;0.93;;;22.60;87.50;;;;;;4977472;28;20030;-71
2022/04/03 08:17:10;;;;;;;2.55;1.08;;;22.50;87.50;;;;;;4973690;28;20671;-72
2022/04/03 08:19:37;;;;;;;3.95;1.00;;;22.40;89.10;;;;;;4980157;28;20415;-75
2022/04/03 08:22:05;;;;;;;2.90;0.77;;;22.30;88.90;;;;;;4980365;28;20117;-72
2022/04/03 08:24:32;;;;;;;3.90;1.02;;;22.10;88.40;;;;;;4977798;28;20038;-71
2022/04/03 08:26:59;;;;;;;2.95;0.88;;;22.00;87.90;;;;;;4987487;28;20022;-70
2022/04/03 08:29:27;;;;;;;2.08;0.95;;;22.00;88.30;;;;;;4980172;28;20032;-71
2022/04/03 08:31:54;;;;;;;3.28;0.90;;;21.90;88.80;;;;;;4974488;28;20054;-71
2022/04/03 08:34:21;;;;;;;2.75;0.55;;;21.90;89.00;;;;;;4978256;28;20070;-71
2022/04/03 08:36:49;;;;;;;1.75;0.73;;;21.90;88.70;;;;;;4979561;28;20030;-71
2022/04/03 08:39:16;;;;;;;2.45;0.95;;;21.90;88.20;;;;;;4977939;28;20045;-71
2022/04/03 08:41:43;;;;;;;1.98;0.70;;;21.90;88.70;;;;;;4979143;28;20610;-72
2022/04/03 08:44:11;;;;;;;2.53;1.10;;;21.90;88.30;;;;;;4995077;28;20462;-71
2022/04/03 08:46:44;;;;;;;2.60;1.10;;;21.80;89.00;;;;;;4997965;28;20044;-72
2022/04/03 08:49:13;;;;;;;4.63;1.13;;;21.80;89.30;;;;;;4987483;28;20030;-71
2022/04/03 08:51:42;;;;;;;2.38;1.13;;;21.70;89.00;;;;;;4977767;28;20034;-71
2022/04/03 08:54:11;;;;;;;3.05;1.20;;;21.60;89.50;;;;;;4981258;28;20109;-71
2022/04/03 08:56:38;;;;;;;3.15;1.10;;;21.60;89.20;;;;;;4974933;28;20023;-71
2022/04/03 08:59:06;;;;;;;2.70;0.82;;;21.50;89.20;;;;;;4990789;28;20046;-71
2022/04/03 09:01:34;;;;;;;4.80;0.63;;;21.50;89.50;;;;;;4980460;28;20060;-71
2022/04/03 09:04:01;;;;;;;3.35;0.77;;;21.40;89.70;;;;;;4989326;28;20461;-71
2022/04/03 09:06:29;;;;;;;1.20;0.52;;;21.30;90.10;;;;;;4977791;28;20079;-71
2022/04/03 09:08:57;;;;;;;2.25;1.00;;;21.30;90.30;;;;;;4971452;28;20039;-72
2022/04/03 09:11:29;;;;;;;1.85;1.10;;;21.20;90.20;;;;;;4978757;28;20035;-72
2022/04/03 09:13:57;;;;;;;1.20;0.80;;;21.00;90.40;;;;;;4982717;28;20033;-72
2022/04/03 09:16:39;;;;;;;1.48;0.73;;;21.00;90.30;;;;;;4986236;28;20390;-72
2022/04/03 09:19:08;;;;;;;4.65;0.85;;;20.90;90.10;;;;;;4980236;28;22795;-72
2022/04/03 09:21:35;;;;;;;1.75;0.60;;;20.90;90.60;;;;;;4978666;28;20405;-72
2022/04/03 09:24:08;;;;;;;2.55;0.80;;;20.80;90.50;;;;;;4979018;28;20035;-73
2022/04/03 09:26:37;;;;;;;1.25;0.68;;;20.80;90.60;;;;;;4981513;28;20037;-72
2022/04/03 09:29:11;;;;;;;2.47;0.85;;;20.70;91.10;;;;;;4970566;28;20026;-73
2022/04/03 09:31:40;;;;;;;1.45;0.73;;;20.60;91.00;;;;;;4975764;28;20043;-72
2022/04/03 09:34:14;;;;;;;1.83;0.63;;;20.70;91.90;;;;;;4981005;28;20039;-72
2022/04/03 09:36:42;;;;;;;2.53;1.10;;;20.70;91.40;;;;;;4979904;28;20497;-73
2022/04/03 09:39:16;;;;;;;1.52;1.02;;;20.70;91.40;;;;;;4975688;28;20042;-72
2022/04/03 09:41:59;;;;;;;4.67;1.87;;;20.60;91.90;;;;;;4978004;28;20385;-73
2022/04/03 09:44:42;;;;;;;2.88;0.90;;;20.60;91.70;;;;;;4976929;28;20030;-73
2022/04/03 09:47:17;;;;;;;1.38;0.90;;;20.50;92.00;;;;;;4980162;28;20438;-72
2022/04/03 09:49:56;;;;;;;1.60;0.57;;;20.40;92.10;;;;;;4979318;28;20030;-72
2022/04/03 09:52:43;;;;;;;9.30;0.75;;;20.30;92.20;;;;;;4979770;28;20347;-73
2022/04/03 09:55:28;;;;;;;2.78;0.82;;;20.30;91.90;;;;;;4980058;28;20540;-72
2022/04/03 09:58:04;;;;;;;3.20;0.75;;;20.20;92.90;;;;;;4979110;28;20094;-73
2022/04/03 10:00:41;;;;;;;1.67;0.77;;;20.20;93.00;;;;;;4986461;28;20074;-73
2022/04/03 10:03:11;;;;;;;3.17;0.70;;;20.10;92.60;;;;;;4977318;28;20026;-73
2022/04/03 10:05:39;;;;;;;1.10;0.60;;;20.10;92.90;;;;;;4975565;28;20042;-73
2022/04/03 10:08:08;;;;;;;2.00;1.25;;;20.00;92.40;;;;;;4972970;28;20033;-73
2022/04/03 10:10:37;;;;;;;2.13;0.90;;;20.00;93.40;;;;;;4975223;28;20047;-73
2022/04/03 10:13:06;;;;;;;1.42;0.50;;;19.90;92.80;;;;;;4975384;28;20085;-74
2022/04/03 10:15:34;;;;;;;1.80;0.80;;;19.90;93.10;;;;;;4978916;28;20037;-72
2022/04/03 10:18:02;;;;;;;1.63;0.77;;;19.80;92.70;;;;;;4974962;28;20042;-73
2022/04/03 10:20:30;;;;;;;1.92;0.95;;;19.80;92.40;;;;;;4977239;28;20378;-73
2022/04/03 10:23:07;;;;;;;1.17;0.60;;;19.80;93.10;;;;;;4990774;28;20503;-73
2022/04/03 10:25:41;;;;;;;4.10;1.20;;;19.70;93.50;;;;;;4982325;28;20027;-74
2022/04/03 10:28:09;;;;;;;2.78;1.30;;;19.70;93.10;;;;;;4982215;28;20030;-72
2022/04/03 10:30:45;;;;;;;1.48;0.60;;;19.70;93.60;;;;;;4980559;28;20503;-72
2022/04/03 10:33:20;;;;;;;2.33;0.60;;;19.50;93.70;;;;;;4989532;28;20440;-74
2022/04/03 10:36:12;;;;;;;1.10;0.60;;;19.40;93.90;;;;;;4980287;28;20042;-74
2022/04/03 10:38:45;;;;;;;1.88;0.60;;;19.20;93.70;;;;;;4977302;28;20031;-74
2022/04/03 10:41:45;;;;;;;1.92;0.70;;;19.10;94.20;;;;;;4977580;28;21339;-75
2022/04/03 10:44:22;;;;;;;1.25;0.57;;;18.90;94.10;;;;;;4947216;28;20452;-78
2022/04/03 10:47:04;;;;;;;4.55;1.10;;;18.80;94.10;;;;;;4975122;28;20030;-76
2022/04/03 10:49:32;;;;;;;4.70;0.80;;;18.80;94.30;;;;;;4974050;28;20115;-75
2022/04/03 10:52:10;;;;;;;2.05;0.45;;;18.70;94.80;;;;;;4977621;28;20018;-73
2022/04/03 10:55:00;;;;;;;1.33;0.70;;;18.70;94.90;;;;;;4977462;28;20034;-72
2022/04/03 10:57:42;;;;;;;2.28;0.55;;;18.70;94.90;;;;;;4974235;28;20525;-74
2022/04/03 11:00:16;;;;;;;3.92;1.65;;;18.70;94.80;;;;;;4974310;28;20042;-75
2022/04/03 11:02:51;;;;;;;1.50;0.70;;;18.70;94.10;;;;;;4981061;28;20038;-74
2022/04/03 11:05:26;;;;;;;1.65;0.77;;;18.60;94.40;;;;;;4978106;28;20496;-73
2022/04/03 11:07:56;;;;;;;1.98;1.00;;;18.70;94.50;;;;;;4977515;28;21962;-74
2022/04/03 11:10:52;;;;;;;1.00;0.55;;;18.60;94.30;;;;;;4975908;28;20392;-73
2022/04/03 11:13:44;;;;;;;3.05;0.80;;;18.60;94.70;;;;;;4983589;28;20038;-73
2022/04/03 11:16:13;;;;;;;2.17;0.63;;;18.60;95.70;;;;;;4977090;28;20027;-74
2022/04/03 11:18:50;;;;;;;1.92;0.65;;;18.60;95.70;;;;;;4976189;28;20026;-73
2022/04/03 11:21:26;;;;;;;3.33;0.70;;;18.50;95.80;;;;;;4971689;28;20039;-74
2022/04/03 11:23:53;;;;;;;1.35;0.60;;;18.40;95.70;;;;;;4971570;28;20887;-74
2022/04/03 11:26:22;;;;;;;1.23;0.70;;;18.40;95.10;;;;;;4976970;28;20037;-72
2022/04/03 11:28:50;;;;;;;3.17;0.93;;;18.30;95.70;;;;;;4980335;28;20023;-73
2022/04/03 11:31:17;;;;;;;1.95;0.80;;;18.30;96.30;;;;;;4973114;28;20039;-73
2022/04/03 11:33:47;;;;;;;1.33;0.65;;;18.20;96.40;;;;;;4975011;28;20143;-73
2022/04/03 11:36:20;;;;;;;1.40;0.50;;;18.20;96.90;;;;;;4970971;28;20097;-72
2022/04/03 11:38:51;;;;;;;1.83;1.15;;;18.10;96.80;;;;;;4973041;28;20023;-72
2022/04/03 11:41:31;;;;;;;3.13;0.85;;;18.00;96.80;;;;;;4978210;28;20035;-73
2022/04/03 11:44:04;;;;;;;1.27;0.93;;;18.00;96.30;;;;;;4972875;28;20564;-71
2022/04/03 11:46:38;;;;;;;2.53;0.90;;;17.90;96.20;;;;;;4976083;28;20378;-71
2022/04/03 11:49:17;;;;;;;1.65;0.68;;;17.90;96.40;;;;;;4982246;28;20486;-72
2022/04/03 11:51:47;;;;;;;2.42;0.68;;;17.80;97.10;;;;;;4982609;28;20377;-74
2022/04/03 11:54:17;;;;;;;2.60;0.75;;;17.80;96.70;;;;;;4975829;28;20030;-71
2022/04/03 11:56:45;;;;;;;2.97;0.70;;;17.80;96.60;;;;;;4978536;28;20022;-71
2022/04/03 11:59:16;;;;;;;2.30;0.60;;;17.80;96.30;;;;;;4976273;28;20122;-71
2022/04/03 12:02:08;;;;;;;1.13;0.50;;;17.80;96.50;;;;;;4985288;28;20507;-72
2022/04/03 12:04:39;;;;;;;1.85;0.68;;;17.80;96.60;;;;;;4969784;28;20540;-73
2022/04/03 12:07:12;;;;;;;1.60;0.80;;;17.80;96.70;;;;;;4975005;28;20074;-71
2022/04/03 12:09:41;;;;;;;0.63;0.50;;;17.70;97.20;;;;;;4975383;28;20030;-71
2022/04/03 12:12:10;;;;;;;3.88;0.50;;;17.70;97.40;;;;;;4967813;28;20082;-71
2022/04/03 12:14:45;;;;;;;1.85;0.98;;;17.60;97.40;;;;;;4973216;28;20033;-70
2022/04/03 12:17:18;;;;;;;1.65;0.57;;;17.60;97.70;;;;;;4981335;28;20027;-70
2022/04/03 12:19:51;;;;;;;3.15;0.80;;;17.50;97.90;;;;;;4980263;28;20039;-72
2022/04/03 12:22:23;;;;;;;1.70;0.63;;;17.50;98.20;;;;;;4974339;28;20397;-71
2022/04/03 12:24:56;;;;;;;2.28;0.80;;;17.40;98.30;;;;;;4983495;28;20038;-73
2022/04/03 12:27:30;;;;;;;2.20;0.55;;;17.40;97.80;;;;;;4990763;28;20026;-73
2022/04/03 12:29:57;;;;;;;1.35;0.88;;;17.40;98.50;;;;;;4982774;28;20041;-71
2022/04/03 12:32:35;;;;;;;2.78;0.80;;;17.30;98.30;;;;;;4980579;28;20373;-72
2022/04/03 12:35:08;;;;;;;1.08;0.57;;;17.20;98.20;;;;;;4970863;28;20157;-71
2022/04/03 12:37:37;;;;;;;3.03;0.98;;;17.20;98.30;;;;;;4974534;28;20035;-71
2022/04/03 12:40:11;;;;;;;2.40;0.95;;;17.10;98.60;;;;;;4990266;28;20053;-73
2022/04/03 12:42:45;;;;;;;3.15;1.00;;;17.10;98.70;;;;;;4990501;28;20086;-72
2022/04/03 12:45:23;;;;;;;1.40;0.90;;;17.10;98.70;;;;;;4986842;28;20031;-72
2022/04/03 12:48:03;;;;;;;1.83;0.90;;;17.00;99.20;;;;;;4975081;28;20749;-73
2022/04/03 12:50:41;;;;;;;3.72;1.08;;;17.00;99.50;;;;;;4976724;28;20046;-74
2022/04/03 12:53:17;;;;;;;1.48;0.65;;;16.90;99.80;;;;;;4981307;28;20046;-73
2022/04/03 12:55:56;;;;;;;2.05;0.88;;;16.90;99.90;;;;;;4981804;28;20073;-71
2022/04/03 12:58:41;;;;;;;1.92;0.60;;;16.80;99.90;;;;;;4983460;28;20026;-73
2022/04/03 13:01:14;;;;;;;2.30;1.10;;;16.80;99.80;;;;;;4977159;28;20448;-73